sensor_id;sensor_type;location;lat;lon;timestamp;P1;durP1;ratioP1;P2;durP2;ratioP2
74291;SDS011;62687;55.738;37.516;2023-03-26T00:01:20;27.10;;;16.60;;
74291;SDS011;62687;55.738;37.516;2023-03-26T00:04:06;25.70;;;14.82;;
74291;SDS011;62687;55.738;37.516;2023-03-26T00:06:50;25.63;;;14.10;;
74291;SDS011;62687;55.738;37.516;2023-03-26T00:09:35;22.38;;;13.52;;
74291;SDS011;62687;55.738;37.516;2023-03-26T00:12:19;23.95;;;13.75;;
74291;SDS011;62687;55.738;37.516;2023-03-26T00:15:03;22.08;;;13.18;;
74291;SDS011;62687;55.738;37.516;2023-03-26T00:18:06;24.40;;;14.60;;
74291;SDS011;62687;55.738;37.516;2023-03-26T00:21:11;26.20;;;15.93;;
74291;SDS011;62687;55.738;37.516;2023-03-26T00:24:14;25.65;;;14.40;;
74291;SDS011;62687;55.738;37.516;2023-03-26T00:27:16;27.23;;;16.88;;
74291;SDS011;62687;55.738;37.516;2023-03-26T00:30:01;28.38;;;16.83;;
74291;SDS011;62687;55.738;37.516;2023-03-26T00:32:46;30.33;;;17.20;;
74291;SDS011;62687;55.738;37.516;2023-03-26T00:35:31;35.00;;;19.20;;
74291;SDS011;62687;55.738;37.516;2023-03-26T00:38:15;34.10;;;19.50;;
74291;SDS011;62687;55.738;37.516;2023-03-26T00:41:00;28.20;;;16.83;;
74291;SDS011;62687;55.738;37.516;2023-03-26T00:43:49;31.95;;;18.10;;
74291;SDS011;62687;55.738;37.516;2023-03-26T00:46:34;34.70;;;19.20;;
74291;SDS011;62687;55.738;37.516;2023-03-26T00:49:18;35.58;;;20.45;;
74291;SDS011;62687;55.738;37.516;2023-03-26T00:52:02;32.40;;;18.90;;
74291;SDS011;62687;55.738;37.516;2023-03-26T00:54:47;32.67;;;20.60;;
74291;SDS011;62687;55.738;37.516;2023-03-26T00:57:34;34.63;;;20.23;;
74291;SDS011;62687;55.738;37.516;2023-03-26T01:03:42;27.38;;;18.30;;
74291;SDS011;62687;55.738;37.516;2023-03-26T01:06:29;28.55;;;17.50;;
74291;SDS011;62687;55.738;37.516;2023-03-26T01:09:19;26.98;;;17.25;;
74291;SDS011;62687;55.738;37.516;2023-03-26T01:12:09;26.83;;;17.33;;
74291;SDS011;62687;55.738;37.516;2023-03-26T01:15:00;33.60;;;19.67;;
74291;SDS011;62687;55.738;37.516;2023-03-26T01:17:47;27.48;;;17.70;;
74291;SDS011;62687;55.738;37.516;2023-03-26T01:23:45;40.45;;;23.20;;
74291;SDS011;62687;55.738;37.516;2023-03-26T01:29:52;34.85;;;20.45;;
74291;SDS011;62687;55.738;37.516;2023-03-26T01:39:07;32.15;;;19.38;;
74291;SDS011;62687;55.738;37.516;2023-03-26T01:42:14;28.17;;;17.08;;
74291;SDS011;62687;55.738;37.516;2023-03-26T01:45:14;30.42;;;17.98;;
74291;SDS011;62687;55.738;37.516;2023-03-26T01:51:12;29.23;;;18.63;;
74291;SDS011;62687;55.738;37.516;2023-03-26T01:57:53;32.58;;;19.10;;
74291;SDS011;62687;55.738;37.516;2023-03-26T02:00:41;31.73;;;18.85;;
74291;SDS011;62687;55.738;37.516;2023-03-26T02:03:38;35.90;;;21.40;;
74291;SDS011;62687;55.738;37.516;2023-03-26T02:07:12;33.33;;;18.33;;
74291;SDS011;62687;55.738;37.516;2023-03-26T02:09:42;30.40;;;17.90;;
74291;SDS011;62687;55.738;37.516;2023-03-26T02:12:30;31.98;;;18.88;;
74291;SDS011;62687;55.738;37.516;2023-03-26T02:15:16;29.63;;;18.60;;
74291;SDS011;62687;55.738;37.516;2023-03-26T02:21:08;32.83;;;19.17;;
74291;SDS011;62687;55.738;37.516;2023-03-26T02:23:53;29.75;;;18.00;;
74291;SDS011;62687;55.738;37.516;2023-03-26T02:27:15;32.25;;;19.05;;
74291;SDS011;62687;55.738;37.516;2023-03-26T02:30:04;33.97;;;18.65;;
74291;SDS011;62687;55.738;37.516;2023-03-26T02:32:50;31.70;;;20.02;;
74291;SDS011;62687;55.738;37.516;2023-03-26T02:35:36;24.25;;;14.75;;
74291;SDS011;62687;55.738;37.516;2023-03-26T02:38:20;29.63;;;17.10;;
74291;SDS011;62687;55.738;37.516;2023-03-26T02:41:08;25.42;;;14.98;;
74291;SDS011;62687;55.738;37.516;2023-03-26T02:43:52;22.08;;;13.80;;
74291;SDS011;62687;55.738;37.516;2023-03-26T02:46:36;16.70;;;11.45;;
74291;SDS011;62687;55.738;37.516;2023-03-26T02:49:21;20.25;;;11.30;;
74291;SDS011;62687;55.738;37.516;2023-03-26T02:52:24;22.70;;;13.30;;
74291;SDS011;62687;55.738;37.516;2023-03-26T02:58:30;23.92;;;14.40;;
74291;SDS011;62687;55.738;37.516;2023-03-26T03:01:14;19.73;;;12.68;;
74291;SDS011;62687;55.738;37.516;2023-03-26T03:04:01;23.50;;;13.98;;
74291;SDS011;62687;55.738;37.516;2023-03-26T03:06:46;21.98;;;13.32;;
74291;SDS011;62687;55.738;37.516;2023-03-26T03:09:35;22.55;;;13.70;;
74291;SDS011;62687;55.738;37.516;2023-03-26T03:12:19;22.17;;;13.88;;
74291;SDS011;62687;55.738;37.516;2023-03-26T03:15:03;20.48;;;11.80;;
74291;SDS011;62687;55.738;37.516;2023-03-26T03:17:48;21.17;;;11.75;;
74291;SDS011;62687;55.738;37.516;2023-03-26T03:23:36;20.50;;;11.55;;
74291;SDS011;62687;55.738;37.516;2023-03-26T03:26:21;18.05;;;10.45;;
74291;SDS011;62687;55.738;37.516;2023-03-26T03:29:14;14.70;;;9.20;;
74291;SDS011;62687;55.738;37.516;2023-03-26T03:32:18;16.17;;;9.60;;
74291;SDS011;62687;55.738;37.516;2023-03-26T03:35:05;17.10;;;9.30;;
74291;SDS011;62687;55.738;37.516;2023-03-26T03:37:52;13.90;;;8.30;;
74291;SDS011;62687;55.738;37.516;2023-03-26T03:43:22;16.45;;;7.63;;
74291;SDS011;62687;55.738;37.516;2023-03-26T03:46:08;11.80;;;7.10;;
74291;SDS011;62687;55.738;37.516;2023-03-26T03:49:11;12.75;;;6.85;;
74291;SDS011;62687;55.738;37.516;2023-03-26T03:51:57;13.02;;;7.10;;
74291;SDS011;62687;55.738;37.516;2023-03-26T03:54:41;9.98;;;6.32;;
74291;SDS011;62687;55.738;37.516;2023-03-26T04:00:53;12.77;;;7.10;;
74291;SDS011;62687;55.738;37.516;2023-03-26T04:03:46;11.52;;;7.45;;
74291;SDS011;62687;55.738;37.516;2023-03-26T04:06:30;12.07;;;7.35;;
74291;SDS011;62687;55.738;37.516;2023-03-26T04:09:16;15.13;;;7.90;;
74291;SDS011;62687;55.738;37.516;2023-03-26T04:12:02;12.52;;;8.13;;
74291;SDS011;62687;55.738;37.516;2023-03-26T04:14:48;12.93;;;8.05;;
74291;SDS011;62687;55.738;37.516;2023-03-26T04:17:33;14.07;;;8.50;;
74291;SDS011;62687;55.738;37.516;2023-03-26T04:20:25;15.00;;;9.10;;
74291;SDS011;62687;55.738;37.516;2023-03-26T04:32:22;16.55;;;9.35;;
74291;SDS011;62687;55.738;37.516;2023-03-26T04:35:16;15.98;;;10.43;;
74291;SDS011;62687;55.738;37.516;2023-03-26T04:38:02;18.25;;;11.48;;
74291;SDS011;62687;55.738;37.516;2023-03-26T04:40:50;20.77;;;10.85;;
74291;SDS011;62687;55.738;37.516;2023-03-26T04:43:34;20.10;;;13.18;;
74291;SDS011;62687;55.738;37.516;2023-03-26T04:46:19;17.88;;;12.13;;
74291;SDS011;62687;55.738;37.516;2023-03-26T04:49:26;21.40;;;12.07;;
74291;SDS011;62687;55.738;37.516;2023-03-26T04:52:10;20.55;;;12.88;;
74291;SDS011;62687;55.738;37.516;2023-03-26T04:54:55;21.88;;;13.75;;
74291;SDS011;62687;55.738;37.516;2023-03-26T04:57:40;24.63;;;13.25;;
74291;SDS011;62687;55.738;37.516;2023-03-26T05:00:28;21.65;;;12.80;;
74291;SDS011;62687;55.738;37.516;2023-03-26T05:03:12;25.45;;;13.57;;
74291;SDS011;62687;55.738;37.516;2023-03-26T05:05:57;24.08;;;13.73;;
74291;SDS011;62687;55.738;37.516;2023-03-26T05:08:43;22.92;;;13.43;;
74291;SDS011;62687;55.738;37.516;2023-03-26T05:11:27;23.08;;;13.95;;
74291;SDS011;62687;55.738;37.516;2023-03-26T05:14:11;24.05;;;14.77;;
74291;SDS011;62687;55.738;37.516;2023-03-26T05:20:18;25.90;;;15.45;;
74291;SDS011;62687;55.738;37.516;2023-03-26T05:23:31;24.95;;;15.52;;
74291;SDS011;62687;55.738;37.516;2023-03-26T05:26:34;25.42;;;15.98;;
74291;SDS011;62687;55.738;37.516;2023-03-26T05:29:59;24.80;;;14.93;;
74291;SDS011;62687;55.738;37.516;2023-03-26T05:32:45;25.20;;;15.00;;
74291;SDS011;62687;55.738;37.516;2023-03-26T05:35:15;27.23;;;14.70;;
74291;SDS011;62687;55.738;37.516;2023-03-26T05:38:02;29.67;;;15.52;;
74291;SDS011;62687;55.738;37.516;2023-03-26T05:40:46;25.90;;;15.45;;
74291;SDS011;62687;55.738;37.516;2023-03-26T05:43:31;24.55;;;14.88;;
74291;SDS011;62687;55.738;37.516;2023-03-26T05:49:18;33.35;;;17.48;;
74291;SDS011;62687;55.738;37.516;2023-03-26T05:55:06;30.42;;;16.98;;
74291;SDS011;62687;55.738;37.516;2023-03-26T05:57:50;32.50;;;17.88;;
74291;SDS011;62687;55.738;37.516;2023-03-26T06:00:35;32.80;;;17.52;;
74291;SDS011;62687;55.738;37.516;2023-03-26T06:03:21;37.38;;;16.95;;
74291;SDS011;62687;55.738;37.516;2023-03-26T06:06:07;31.60;;;16.30;;
74291;SDS011;62687;55.738;37.516;2023-03-26T06:08:53;31.95;;;17.08;;
74291;SDS011;62687;55.738;37.516;2023-03-26T06:11:37;32.88;;;17.00;;
74291;SDS011;62687;55.738;37.516;2023-03-26T06:17:06;34.70;;;17.20;;
74291;SDS011;62687;55.738;37.516;2023-03-26T06:20:09;35.83;;;16.77;;
74291;SDS011;62687;55.738;37.516;2023-03-26T06:25:57;36.53;;;17.15;;
74291;SDS011;62687;55.738;37.516;2023-03-26T06:28:41;32.17;;;15.55;;
74291;SDS011;62687;55.738;37.516;2023-03-26T06:31:45;30.05;;;15.85;;
74291;SDS011;62687;55.738;37.516;2023-03-26T06:34:29;31.90;;;15.15;;
74291;SDS011;62687;55.738;37.516;2023-03-26T06:37:13;31.70;;;15.38;;
74291;SDS011;62687;55.738;37.516;2023-03-26T06:39:57;29.65;;;15.15;;
74291;SDS011;62687;55.738;37.516;2023-03-26T06:42:41;32.20;;;14.93;;
74291;SDS011;62687;55.738;37.516;2023-03-26T06:45:25;29.05;;;14.75;;
74291;SDS011;62687;55.738;37.516;2023-03-26T06:48:29;26.70;;;14.13;;
74291;SDS011;62687;55.738;37.516;2023-03-26T06:54:16;29.52;;;13.40;;
74291;SDS011;62687;55.738;37.516;2023-03-26T06:57:00;27.67;;;14.73;;
74291;SDS011;62687;55.738;37.516;2023-03-26T06:59:44;28.85;;;12.75;;
74291;SDS011;62687;55.738;37.516;2023-03-26T07:02:28;22.52;;;11.43;;
74291;SDS011;62687;55.738;37.516;2023-03-26T07:05:13;22.75;;;10.52;;
74291;SDS011;62687;55.738;37.516;2023-03-26T07:07:57;25.02;;;12.38;;
74291;SDS011;62687;55.738;37.516;2023-03-26T07:10:41;22.95;;;10.85;;
74291;SDS011;62687;55.738;37.516;2023-03-26T07:13:26;23.83;;;9.77;;
74291;SDS011;62687;55.738;37.516;2023-03-26T07:16:10;21.83;;;10.32;;
74291;SDS011;62687;55.738;37.516;2023-03-26T07:18:54;22.85;;;9.32;;
74291;SDS011;62687;55.738;37.516;2023-03-26T07:21:38;22.92;;;9.38;;
74291;SDS011;62687;55.738;37.516;2023-03-26T07:24:23;18.80;;;9.18;;
74291;SDS011;62687;55.738;37.516;2023-03-26T07:33:31;18.38;;;9.30;;
74291;SDS011;62687;55.738;37.516;2023-03-26T07:36:23;19.70;;;9.02;;
74291;SDS011;62687;55.738;37.516;2023-03-26T07:45:38;15.85;;;7.57;;
74291;SDS011;62687;55.738;37.516;2023-03-26T07:48:25;15.30;;;7.35;;
74291;SDS011;62687;55.738;37.516;2023-03-26T07:51:14;18.52;;;8.10;;
74291;SDS011;62687;55.738;37.516;2023-03-26T07:59:52;11.70;;;5.55;;
74291;SDS011;62687;55.738;37.516;2023-03-26T08:06:06;11.77;;;5.45;;
74291;SDS011;62687;55.738;37.516;2023-03-26T08:09:11;14.00;;;6.55;;
74291;SDS011;62687;55.738;37.516;2023-03-26T08:12:05;10.82;;;5.90;;
74291;SDS011;62687;55.738;37.516;2023-03-26T08:24:46;9.90;;;5.95;;
74291;SDS011;62687;55.738;37.516;2023-03-26T08:27:51;9.27;;;5.40;;
74291;SDS011;62687;55.738;37.516;2023-03-26T08:30:47;8.65;;;5.60;;
74291;SDS011;62687;55.738;37.516;2023-03-26T08:33:31;9.55;;;5.53;;
74291;SDS011;62687;55.738;37.516;2023-03-26T08:36:17;8.50;;;5.55;;
74291;SDS011;62687;55.738;37.516;2023-03-26T08:39:01;14.43;;;6.30;;
74291;SDS011;62687;55.738;37.516;2023-03-26T08:47:26;8.68;;;5.78;;
74291;SDS011;62687;55.738;37.516;2023-03-26T09:09:09;9.35;;;5.65;;
74291;SDS011;62687;55.738;37.516;2023-03-26T09:15:44;7.93;;;4.50;;
74291;SDS011;62687;55.738;37.516;2023-03-26T09:31:51;6.82;;;4.20;;
74291;SDS011;62687;55.738;37.516;2023-03-26T09:37:58;6.93;;;5.00;;
74291;SDS011;62687;55.738;37.516;2023-03-26T10:14:18;6.60;;;4.68;;
74291;SDS011;62687;55.738;37.516;2023-03-26T10:29:59;10.10;;;4.20;;
74291;SDS011;62687;55.738;37.516;2023-03-26T10:45:29;10.15;;;5.15;;
74291;SDS011;62687;55.738;37.516;2023-03-26T11:00:32;8.68;;;4.72;;
74291;SDS011;62687;55.738;37.516;2023-03-26T11:03:32;12.63;;;5.25;;
74291;SDS011;62687;55.738;37.516;2023-03-26T11:09:30;8.48;;;5.45;;
74291;SDS011;62687;55.738;37.516;2023-03-26T11:15:37;11.73;;;6.25;;
74291;SDS011;62687;55.738;37.516;2023-03-26T11:30:52;14.13;;;6.75;;
74291;SDS011;62687;55.738;37.516;2023-03-26T11:33:55;10.57;;;6.95;;
74291;SDS011;62687;55.738;37.516;2023-03-26T11:36:53;12.57;;;8.55;;
74291;SDS011;62687;55.738;37.516;2023-03-26T11:39:43;11.82;;;7.80;;
74291;SDS011;62687;55.738;37.516;2023-03-26T11:42:32;14.45;;;9.20;;
74291;SDS011;62687;55.738;37.516;2023-03-26T11:45:17;14.20;;;9.82;;
74291;SDS011;62687;55.738;37.516;2023-03-26T11:51:31;15.27;;;9.02;;
74291;SDS011;62687;55.738;37.516;2023-03-26T11:54:18;14.18;;;9.27;;
74291;SDS011;62687;55.738;37.516;2023-03-26T11:57:11;18.17;;;10.18;;
74291;SDS011;62687;55.738;37.516;2023-03-26T12:00:05;14.05;;;9.32;;
74291;SDS011;62687;55.738;37.516;2023-03-26T12:03:00;14.60;;;9.25;;
74291;SDS011;62687;55.738;37.516;2023-03-26T12:05:46;16.15;;;9.57;;
74291;SDS011;62687;55.738;37.516;2023-03-26T12:08:37;21.17;;;10.57;;
74291;SDS011;62687;55.738;37.516;2023-03-26T12:11:24;16.77;;;9.73;;
74291;SDS011;62687;55.738;37.516;2023-03-26T12:14:18;14.50;;;9.77;;
74291;SDS011;62687;55.738;37.516;2023-03-26T12:17:07;14.40;;;8.60;;
74291;SDS011;62687;55.738;37.516;2023-03-26T12:19:57;15.60;;;8.98;;
74291;SDS011;62687;55.738;37.516;2023-03-26T12:22:42;14.52;;;9.20;;
74291;SDS011;62687;55.738;37.516;2023-03-26T12:25:30;14.90;;;8.35;;
74291;SDS011;62687;55.738;37.516;2023-03-26T12:28:17;17.05;;;9.73;;
74291;SDS011;62687;55.738;37.516;2023-03-26T12:31:03;17.40;;;9.45;;
74291;SDS011;62687;55.738;37.516;2023-03-26T12:34:04;15.52;;;8.90;;
74291;SDS011;62687;55.738;37.516;2023-03-26T12:36:52;15.25;;;9.27;;
74291;SDS011;62687;55.738;37.516;2023-03-26T12:39:44;19.05;;;9.25;;
74291;SDS011;62687;55.738;37.516;2023-03-26T12:42:30;13.85;;;8.40;;
74291;SDS011;62687;55.738;37.516;2023-03-26T12:45:16;14.55;;;8.35;;
74291;SDS011;62687;55.738;37.516;2023-03-26T12:48:05;14.40;;;9.02;;
74291;SDS011;62687;55.738;37.516;2023-03-26T12:51:11;13.38;;;8.43;;
74291;SDS011;62687;55.738;37.516;2023-03-26T12:56:51;12.48;;;8.07;;
74291;SDS011;62687;55.738;37.516;2023-03-26T13:06:19;12.80;;;8.27;;
74291;SDS011;62687;55.738;37.516;2023-03-26T13:15:33;10.60;;;6.63;;
74291;SDS011;62687;55.738;37.516;2023-03-26T13:21:36;12.95;;;8.00;;
74291;SDS011;62687;55.738;37.516;2023-03-26T13:30:57;16.88;;;7.60;;
74291;SDS011;62687;55.738;37.516;2023-03-26T13:36:38;13.98;;;8.77;;
74291;SDS011;62687;55.738;37.516;2023-03-26T13:48:51;13.80;;;8.48;;
74291;SDS011;62687;55.738;37.516;2023-03-26T13:52:09;13.95;;;9.00;;
74291;SDS011;62687;55.738;37.516;2023-03-26T13:55:16;14.20;;;9.32;;
74291;SDS011;62687;55.738;37.516;2023-03-26T14:01:21;15.57;;;9.02;;
74291;SDS011;62687;55.738;37.516;2023-03-26T14:04:25;15.52;;;8.13;;
74291;SDS011;62687;55.738;37.516;2023-03-26T14:08:18;10.98;;;7.80;;
74291;SDS011;62687;55.738;37.516;2023-03-26T14:10:55;13.27;;;7.35;;
74291;SDS011;62687;55.738;37.516;2023-03-26T14:13:59;13.20;;;7.25;;
74291;SDS011;62687;55.738;37.516;2023-03-26T14:16:55;12.63;;;6.78;;
74291;SDS011;62687;55.738;37.516;2023-03-26T14:38:22;10.85;;;5.45;;
74291;SDS011;62687;55.738;37.516;2023-03-26T14:45:00;10.30;;;5.90;;
74291;SDS011;62687;55.738;37.516;2023-03-26T14:51:19;7.80;;;5.22;;
74291;SDS011;62687;55.738;37.516;2023-03-26T14:54:12;6.68;;;4.60;;
74291;SDS011;62687;55.738;37.516;2023-03-26T15:18:56;8.95;;;5.60;;
74291;SDS011;62687;55.738;37.516;2023-03-26T15:53:46;8.75;;;4.57;;
74291;SDS011;62687;55.738;37.516;2023-03-26T15:56:54;8.65;;;4.18;;
74291;SDS011;62687;55.738;37.516;2023-03-26T16:02:45;8.38;;;5.28;;
74291;SDS011;62687;55.738;37.516;2023-03-26T16:12:24;6.68;;;4.20;;
74291;SDS011;62687;55.738;37.516;2023-03-26T16:15:24;6.78;;;4.50;;
74291;SDS011;62687;55.738;37.516;2023-03-26T16:32:44;8.57;;;5.00;;
74291;SDS011;62687;55.738;37.516;2023-03-26T16:41:54;7.07;;;4.43;;
74291;SDS011;62687;55.738;37.516;2023-03-26T16:59:53;6.22;;;4.05;;
74291;SDS011;62687;55.738;37.516;2023-03-26T17:06:05;7.18;;;4.55;;
74291;SDS011;62687;55.738;37.516;2023-03-26T17:09:06;6.95;;;3.97;;
74291;SDS011;62687;55.738;37.516;2023-03-26T17:18:34;7.13;;;4.32;;
74291;SDS011;62687;55.738;37.516;2023-03-26T17:27:55;6.15;;;4.00;;
74291;SDS011;62687;55.738;37.516;2023-03-26T17:33:38;6.38;;;4.10;;
74291;SDS011;62687;55.738;37.516;2023-03-26T17:36:39;7.15;;;4.60;;
74291;SDS011;62687;55.738;37.516;2023-03-26T17:45:14;9.00;;;5.07;;
74291;SDS011;62687;55.738;37.516;2023-03-26T17:48:12;9.48;;;4.63;;
74291;SDS011;62687;55.738;37.516;2023-03-26T17:54:32;7.63;;;5.05;;
74291;SDS011;62687;55.738;37.516;2023-03-26T18:00:39;7.18;;;4.53;;
74291;SDS011;62687;55.738;37.516;2023-03-26T18:03:29;7.43;;;4.65;;
74291;SDS011;62687;55.738;37.516;2023-03-26T18:18:25;7.47;;;4.03;;
74291;SDS011;62687;55.738;37.516;2023-03-26T18:21:20;7.30;;;4.32;;
74291;SDS011;62687;55.738;37.516;2023-03-26T18:24:11;6.40;;;4.18;;
74291;SDS011;62687;55.738;37.516;2023-03-26T18:27:02;6.75;;;3.92;;
74291;SDS011;62687;55.738;37.516;2023-03-26T18:29:59;6.88;;;4.03;;
74291;SDS011;62687;55.738;37.516;2023-03-26T18:35:41;8.05;;;3.78;;
74291;SDS011;62687;55.738;37.516;2023-03-26T18:38:28;6.90;;;4.07;;
74291;SDS011;62687;55.738;37.516;2023-03-26T18:41:21;6.43;;;3.70;;
74291;SDS011;62687;55.738;37.516;2023-03-26T18:44:14;8.52;;;4.15;;
74291;SDS011;62687;55.738;37.516;2023-03-26T18:47:02;7.72;;;4.30;;
74291;SDS011;62687;55.738;37.516;2023-03-26T18:49:50;6.38;;;3.63;;
74291;SDS011;62687;55.738;37.516;2023-03-26T18:52:38;7.03;;;3.75;;
74291;SDS011;62687;55.738;37.516;2023-03-26T18:55:31;6.97;;;4.05;;
74291;SDS011;62687;55.738;37.516;2023-03-26T18:58:23;4.80;;;3.17;;
74291;SDS011;62687;55.738;37.516;2023-03-26T19:01:10;7.63;;;3.75;;
74291;SDS011;62687;55.738;37.516;2023-03-26T19:06:42;7.10;;;3.42;;
74291;SDS011;62687;55.738;37.516;2023-03-26T19:09:27;4.35;;;2.60;;
74291;SDS011;62687;55.738;37.516;2023-03-26T19:12:17;6.50;;;3.20;;
74291;SDS011;62687;55.738;37.516;2023-03-26T19:15:03;7.43;;;3.25;;
74291;SDS011;62687;55.738;37.516;2023-03-26T19:17:51;7.90;;;5.38;;
74291;SDS011;62687;55.738;37.516;2023-03-26T19:20:41;9.35;;;6.45;;
74291;SDS011;62687;55.738;37.516;2023-03-26T19:23:37;10.40;;;6.40;;
74291;SDS011;62687;55.738;37.516;2023-03-26T19:26:23;8.98;;;6.20;;
74291;SDS011;62687;55.738;37.516;2023-03-26T19:29:11;14.15;;;7.05;;
74291;SDS011;62687;55.738;37.516;2023-03-26T19:32:04;11.23;;;7.00;;
74291;SDS011;62687;55.738;37.516;2023-03-26T19:34:59;16.52;;;8.52;;
74291;SDS011;62687;55.738;37.516;2023-03-26T19:37:50;6.15;;;3.30;;
74291;SDS011;62687;55.738;37.516;2023-03-26T19:40:36;5.75;;;3.83;;
74291;SDS011;62687;55.738;37.516;2023-03-26T19:43:24;8.10;;;5.50;;
74291;SDS011;62687;55.738;37.516;2023-03-26T19:46:11;9.43;;;5.90;;
74291;SDS011;62687;55.738;37.516;2023-03-26T19:48:56;5.32;;;2.83;;
74291;SDS011;62687;55.738;37.516;2023-03-26T19:51:41;5.03;;;3.00;;
74291;SDS011;62687;55.738;37.516;2023-03-26T19:54:25;8.82;;;5.57;;
74291;SDS011;62687;55.738;37.516;2023-03-26T19:57:09;8.95;;;5.32;;
74291;SDS011;62687;55.738;37.516;2023-03-26T19:59:53;10.80;;;6.43;;
74291;SDS011;62687;55.738;37.516;2023-03-26T20:02:39;9.68;;;6.07;;
74291;SDS011;62687;55.738;37.516;2023-03-26T20:05:30;11.88;;;7.00;;
74291;SDS011;62687;55.738;37.516;2023-03-26T20:08:16;13.90;;;7.47;;
74291;SDS011;62687;55.738;37.516;2023-03-26T20:11:02;17.27;;;8.02;;
74291;SDS011;62687;55.738;37.516;2023-03-26T20:13:46;14.60;;;7.22;;
74291;SDS011;62687;55.738;37.516;2023-03-26T20:16:32;14.50;;;7.43;;
74291;SDS011;62687;55.738;37.516;2023-03-26T20:19:17;12.00;;;5.15;;
74291;SDS011;62687;55.738;37.516;2023-03-26T20:22:01;17.40;;;8.05;;
74291;SDS011;62687;55.738;37.516;2023-03-26T20:24:45;18.83;;;7.28;;
74291;SDS011;62687;55.738;37.516;2023-03-26T20:27:30;26.55;;;8.38;;
74291;SDS011;62687;55.738;37.516;2023-03-26T20:30:14;16.40;;;5.85;;
74291;SDS011;62687;55.738;37.516;2023-03-26T20:32:58;23.35;;;7.40;;
74291;SDS011;62687;55.738;37.516;2023-03-26T20:35:43;18.48;;;7.30;;
74291;SDS011;62687;55.738;37.516;2023-03-26T20:38:27;20.58;;;6.63;;
74291;SDS011;62687;55.738;37.516;2023-03-26T20:41:13;20.67;;;6.70;;
74291;SDS011;62687;55.738;37.516;2023-03-26T20:44:12;23.80;;;7.75;;
74291;SDS011;62687;55.738;37.516;2023-03-26T20:46:57;19.90;;;6.43;;
74291;SDS011;62687;55.738;37.516;2023-03-26T20:49:42;23.85;;;5.93;;
74291;SDS011;62687;55.738;37.516;2023-03-26T20:52:26;15.40;;;5.65;;
74291;SDS011;62687;55.738;37.516;2023-03-26T20:55:12;20.05;;;7.55;;
74291;SDS011;62687;55.738;37.516;2023-03-26T20:57:58;16.52;;;6.95;;
74291;SDS011;62687;55.738;37.516;2023-03-26T21:00:43;15.15;;;6.50;;
74291;SDS011;62687;55.738;37.516;2023-03-26T21:03:29;15.20;;;7.55;;
74291;SDS011;62687;55.738;37.516;2023-03-26T21:06:13;11.98;;;4.72;;
74291;SDS011;62687;55.738;37.516;2023-03-26T21:08:57;16.13;;;7.57;;
74291;SDS011;62687;55.738;37.516;2023-03-26T21:14:38;11.93;;;5.43;;
74291;SDS011;62687;55.738;37.516;2023-03-26T21:17:26;12.55;;;6.03;;
74291;SDS011;62687;55.738;37.516;2023-03-26T21:20:11;13.60;;;6.47;;
74291;SDS011;62687;55.738;37.516;2023-03-26T21:28:45;8.07;;;3.80;;
74291;SDS011;62687;55.738;37.516;2023-03-26T21:31:30;14.00;;;6.05;;
74291;SDS011;62687;55.738;37.516;2023-03-26T21:34:20;11.45;;;5.72;;
74291;SDS011;62687;55.738;37.516;2023-03-26T21:37:05;10.15;;;4.88;;
74291;SDS011;62687;55.738;37.516;2023-03-26T21:39:49;15.95;;;6.60;;
74291;SDS011;62687;55.738;37.516;2023-03-26T21:42:33;17.00;;;5.90;;
74291;SDS011;62687;55.738;37.516;2023-03-26T21:45:18;11.77;;;5.65;;
74291;SDS011;62687;55.738;37.516;2023-03-26T21:48:03;13.80;;;6.18;;
74291;SDS011;62687;55.738;37.516;2023-03-26T21:50:48;12.30;;;5.95;;
74291;SDS011;62687;55.738;37.516;2023-03-26T21:53:33;12.40;;;5.82;;
74291;SDS011;62687;55.738;37.516;2023-03-26T22:00:03;11.10;;;5.07;;
74291;SDS011;62687;55.738;37.516;2023-03-26T22:06:02;8.63;;;4.30;;
74291;SDS011;62687;55.738;37.516;2023-03-26T22:08:53;8.10;;;4.05;;
74291;SDS011;62687;55.738;37.516;2023-03-26T22:11:39;8.00;;;4.68;;
74291;SDS011;62687;55.738;37.516;2023-03-26T22:14:24;9.07;;;4.75;;
74291;SDS011;62687;55.738;37.516;2023-03-26T22:17:10;11.68;;;5.38;;
74291;SDS011;62687;55.738;37.516;2023-03-26T22:19:54;7.80;;;2.97;;
74291;SDS011;62687;55.738;37.516;2023-03-26T22:22:42;8.50;;;4.35;;
74291;SDS011;62687;55.738;37.516;2023-03-26T22:25:31;5.85;;;3.80;;
74291;SDS011;62687;55.738;37.516;2023-03-26T22:28:16;7.20;;;3.75;;
74291;SDS011;62687;55.738;37.516;2023-03-26T22:31:05;9.57;;;4.38;;
74291;SDS011;62687;55.738;37.516;2023-03-26T22:33:52;9.25;;;5.03;;
74291;SDS011;62687;55.738;37.516;2023-03-26T22:36:37;8.05;;;4.13;;
74291;SDS011;62687;55.738;37.516;2023-03-26T22:39:22;7.20;;;3.78;;
74291;SDS011;62687;55.738;37.516;2023-03-26T22:42:06;5.28;;;3.40;;
74291;SDS011;62687;55.738;37.516;2023-03-26T22:44:52;5.63;;;3.00;;
74291;SDS011;62687;55.738;37.516;2023-03-26T22:47:36;4.82;;;2.80;;
74291;SDS011;62687;55.738;37.516;2023-03-26T22:50:21;6.93;;;4.10;;
74291;SDS011;62687;55.738;37.516;2023-03-26T22:53:06;7.60;;;3.50;;
74291;SDS011;62687;55.738;37.516;2023-03-26T22:55:52;6.43;;;3.45;;
74291;SDS011;62687;55.738;37.516;2023-03-26T23:01:23;5.25;;;3.28;;
74291;SDS011;62687;55.738;37.516;2023-03-26T23:04:07;8.13;;;4.03;;
74291;SDS011;62687;55.738;37.516;2023-03-26T23:06:52;9.75;;;4.82;;
74291;SDS011;62687;55.738;37.516;2023-03-26T23:09:38;10.73;;;5.38;;
74291;SDS011;62687;55.738;37.516;2023-03-26T23:12:22;9.65;;;5.63;;
74291;SDS011;62687;55.738;37.516;2023-03-26T23:15:09;9.50;;;5.90;;
74291;SDS011;62687;55.738;37.516;2023-03-26T23:17:56;9.05;;;5.53;;
74291;SDS011;62687;55.738;37.516;2023-03-26T23:20:47;9.18;;;3.63;;
74291;SDS011;62687;55.738;37.516;2023-03-26T23:23:38;8.88;;;5.60;;
74291;SDS011;62687;55.738;37.516;2023-03-26T23:29:07;8.43;;;4.55;;
74291;SDS011;62687;55.738;37.516;2023-03-26T23:31:52;5.82;;;3.22;;
74291;SDS011;62687;55.738;37.516;2023-03-26T23:34:37;9.02;;;5.22;;
74291;SDS011;62687;55.738;37.516;2023-03-26T23:37:21;10.13;;;6.57;;
74291;SDS011;62687;55.738;37.516;2023-03-26T23:40:06;8.43;;;4.68;;
74291;SDS011;62687;55.738;37.516;2023-03-26T23:42:52;5.70;;;2.97;;
74291;SDS011;62687;55.738;37.516;2023-03-26T23:45:37;9.73;;;5.40;;
74291;SDS011;62687;55.738;37.516;2023-03-26T23:48:21;9.25;;;5.45;;
74291;SDS011;62687;55.738;37.516;2023-03-26T23:51:07;11.45;;;5.88;;
74291;SDS011;62687;55.738;37.516;2023-03-26T23:53:52;12.55;;;6.03;;
74291;SDS011;62687;55.738;37.516;2023-03-26T23:56:36;14.18;;;6.80;;
74291;SDS011;62687;55.738;37.516;2023-03-26T23:59:20;8.25;;;4.68;;
